AIRPORT_AIRPORT_METAR
METAR FOR LYNI
ADDS - METARS form results

(1505 UTC 18 August 2019)
Data provider http://aviationweather.gov/metar/data/
 
METAR text: LYNI 181500Z 31005KT 270V350 CAVOK 30/10 Q1016 NOSIG
Conditions at: LYNI (NIS , CS) observed 1500 UTC 18 August 2019
Temperature: 30.0°C (86°F)
Dewpoint: 10.0°C (50°F) [RH = 29%]
Pressure (altimeter): 30.00 inches Hg (1016.0 mb)
Winds: from the NW (310 degrees) at 6 MPH (5 knots; 2.6 m/s)
Visibility: 6 or more miles (10+ km)
Ceiling: ceiling and visibility are OK
Clouds: unknown
Weather: no significant weather observed at this time

METAR text: LYNI 181430Z 31004KT 250V020 CAVOK 30/09 Q1016 NOSIG
Conditions at: LYNI (NIS , CS) observed 1430 UTC 18 August 2019
Temperature: 30.0°C (86°F)
Dewpoint: 9.0°C (48°F) [RH = 27%]
Pressure (altimeter): 30.00 inches Hg (1016.0 mb)
Winds: from the NW (310 degrees) at 5 MPH (4 knots; 2.1 m/s)
Visibility: 6 or more miles (10+ km)
Ceiling: ceiling and visibility are OK
Clouds: unknown
Weather: no significant weather observed at this time

Forecast for: LYNI (NIS , CS)
Text: TAF LYNI 181100Z 1812/1912 16006KT CAVOK TX30/1912Z TN13/1904Z
Forecast period: 1200 UTC 18 August 2019 to 1200 UTC 19 August 2019
Forecast type: FROM: standard forecast or significant change
Winds: from the SSE (160 degrees) at 7 MPH (6 knots; 3.1 m/s)
Visibility: 6 or more miles 10+ km)
Ceiling: unknown
Clouds: missing
Weather: no significant weather forecast for this period

 AIRPORT_AIRPORT_MAP

 AIRPORT_RUNWAY_INFO
AIRPORT_RUNWAY 11 AIRPORT_RUNWAY_LENGTH 8202 ft AIRPORT_RUNWAY_WIDTH 148 ft
AIRPORT_RUNWAY_ELEVATION 644 ft AIRPORT_RUNWAY_THRESHOLD 719 ft AIRPORT_RUNWAY_HEADING 113
AIRPORT_RUNWAY 29 AIRPORT_RUNWAY_LENGTH 8202 ft AIRPORT_RUNWAY_WIDTH 148 ft
AIRPORT_RUNWAY_ELEVATION 646 ft AIRPORT_RUNWAY_THRESHOLD 985 ft AIRPORT_RUNWAY_HEADING 293

 AIRPORT_AIRPORT_FREQUENCIES
AIRPORT_AIRPORT_NAVAIDS_TYPE APP AIRPORT_AIRPORT_NAVAIDS_NAME APP AIRPORT_AIRPORT_NAVAIDS_FREQ 129.325 MHZ
AIRPORT_AIRPORT_NAVAIDS_TYPE TWR AIRPORT_AIRPORT_NAVAIDS_NAME TWR AIRPORT_AIRPORT_NAVAIDS_FREQ 129.325 MHZ

 AIRPORT_AIRPORT_NAVAIDS
AIRPORT_AIRPORT_NAVAIDS_TYPE VOR-DME AIRPORT_AIRPORT_NAVAIDS_NAME Nis AIRPORT_AIRPORT_NAVAIDS_FREQ 113900 KHZ



Copyright © 2005-2019 - Virtuel Air Alsace - Tous droits réservés